createdAt,value
2022-12-01T00:35:49.018Z,100853.56
2022-12-01T00:38:15.484Z,100845.75
2022-12-01T00:40:42.668Z,100851.00
2022-12-01T00:43:09.028Z,100848.31
2022-12-01T00:45:35.388Z,100854.38
2022-12-01T00:48:01.808Z,100850.91
2022-12-01T00:50:28.229Z,100845.59
2022-12-01T00:52:54.598Z,100847.31
2022-12-01T00:55:20.949Z,100844.69
2022-12-01T00:57:47.350Z,100851.63
2022-12-01T01:00:14.471Z,100847.25
2022-12-01T01:02:40.875Z,100853.34
2022-12-01T01:05:07.753Z,100857.72
2022-12-01T01:07:34.185Z,100850.72
2022-12-01T01:10:00.646Z,100852.53
2022-12-01T01:12:27.957Z,100856.94
2022-12-01T01:14:54.326Z,100856.03
2022-12-01T01:17:20.799Z,100859.56
2022-12-01T01:19:47.502Z,100864.81
2022-12-01T01:22:14.159Z,100858.66
2022-12-01T01:24:40.574Z,100857.72
2022-12-01T01:27:06.978Z,100860.34
2022-12-01T01:29:33.403Z,100859.44
2022-12-01T01:31:59.767Z,100863.84
2022-12-01T01:34:26.177Z,100872.56
2022-12-01T01:36:52.547Z,100870.81
2022-12-01T01:39:18.983Z,100866.47
2022-12-01T01:41:45.392Z,100868.22
2022-12-01T01:44:45.784Z,100868.31
2022-12-01T01:47:13.224Z,100869.09
2022-12-01T01:49:41.176Z,100874.34
2022-12-01T01:52:07.600Z,100875.28
2022-12-01T01:54:39.550Z,100872.75
2022-12-01T01:57:09.576Z,100871.84
2022-12-01T01:59:45.125Z,100877.16
2022-12-01T02:02:12.818Z,100869.25
2022-12-01T02:04:47.137Z,100875.41
2022-12-01T02:07:17.432Z,100877.13
2022-12-01T02:09:44.080Z,100872.78
2022-12-01T02:12:25.836Z,100872.81
2022-12-01T02:15:17.901Z,100874.66
2022-12-01T02:18:04.510Z,100872.91
2022-12-01T02:20:39.961Z,100870.16
2022-12-01T02:23:30.345Z,100875.44
2022-12-01T02:26:31.937Z,100880.88
2022-12-01T02:29:25.869Z,100886.13
2022-12-01T02:31:59.640Z,100881.72
2022-12-01T02:34:34.634Z,100877.44
2022-12-01T02:37:32.666Z,100879.25
2022-12-01T02:40:03.626Z,100873.09
2022-12-01T02:42:50.398Z,100880.97
2022-12-01T02:45:42.894Z,100868.75
2022-12-01T02:48:20.627Z,100872.28
2022-12-01T02:50:47.938Z,100868.75
2022-12-01T02:53:17.184Z,100874.91
2022-12-01T02:55:52.792Z,100872.38
2022-12-01T02:58:19.687Z,100869.59
2022-12-01T03:01:10.628Z,100861.88
2022-12-01T03:03:52.295Z,100868.81
2022-12-01T03:06:23.672Z,100874.81
2022-12-01T03:09:09.217Z,100875.84
2022-12-01T03:11:43.485Z,100869.72
2022-12-01T03:14:33.008Z,100874.13
2022-12-01T03:17:08.268Z,100874.09
2022-12-01T03:19:44.268Z,100868.03
2022-12-01T03:22:16.444Z,100874.09
2022-12-01T03:24:48.344Z,100864.50
2022-12-01T03:27:20.842Z,100866.25
2022-12-01T03:29:51.744Z,100862.84
2022-12-01T03:32:24.792Z,100865.44
2022-12-01T03:34:53.860Z,100865.50
2022-12-01T03:37:41.094Z,100866.44
2022-12-01T03:40:11.909Z,100858.56
2022-12-01T03:42:46.281Z,100861.28
2022-12-01T03:45:19.559Z,100860.41
2022-12-01T03:47:46.029Z,100864.78
2022-12-01T03:50:14.145Z,100863.00
2022-12-01T03:52:47.920Z,100863.94
2022-12-01T03:55:32.057Z,100865.75
2022-12-01T03:58:08.841Z,100866.56
2022-12-01T04:00:35.666Z,100869.13
2022-12-01T04:03:04.124Z,100870.88
2022-12-01T04:05:32.448Z,100870.88
2022-12-01T04:07:59.318Z,100870.06
2022-12-01T04:10:25.994Z,100877.06
2022-12-01T04:12:58.855Z,100871.00
2022-12-01T04:15:27.362Z,100883.19
2022-12-01T04:17:54.198Z,100881.44
2022-12-01T04:20:21.610Z,100884.94
2022-12-01T04:22:48.564Z,100883.22
2022-12-01T04:25:15.122Z,100886.78
2022-12-01T04:27:41.456Z,100891.16
2022-12-01T04:30:08.499Z,100891.19
2022-12-01T04:32:39.724Z,100886.97
2022-12-01T04:35:07.807Z,100886.91
2022-12-01T04:37:34.808Z,100888.69
2022-12-01T04:40:01.204Z,100880.78
2022-12-01T04:42:27.589Z,100889.50
2022-12-01T04:44:53.940Z,100875.59
2022-12-01T04:47:20.313Z,100882.56
2022-12-01T04:49:46.915Z,100886.06
2022-12-01T04:52:13.588Z,100881.72
2022-12-01T04:54:40.116Z,100884.34
2022-12-01T04:57:06.542Z,100873.91
2022-12-01T04:59:32.965Z,100875.69
2022-12-01T05:01:59.434Z,100880.03
2022-12-01T05:04:26.025Z,100875.69
2022-12-01T05:06:55.574Z,100877.50
2022-12-01T05:09:21.997Z,100883.56
2022-12-01T05:11:48.386Z,100879.22
2022-12-01T05:14:14.746Z,100882.75
2022-12-01T05:16:41.338Z,100881.88
2022-12-01T05:19:26.111Z,100874.94
2022-12-01T05:21:52.742Z,100877.50
2022-12-01T05:24:20.062Z,100881.00
2022-12-01T05:26:46.586Z,100884.53
2022-12-01T05:29:13.367Z,100881.91
2022-12-01T05:31:40.222Z,100881.06
2022-12-01T05:34:07.583Z,100887.16
2022-12-01T05:36:34.083Z,100885.44
2022-12-01T05:39:00.523Z,100886.31
2022-12-01T05:41:26.965Z,100882.88
2022-12-01T05:43:53.340Z,100883.72
2022-12-01T05:46:19.807Z,100886.34
2022-12-01T05:48:47.157Z,100893.34
2022-12-01T05:51:16.111Z,100883.78
2022-12-01T05:53:43.254Z,100896.88
2022-12-01T05:56:09.948Z,100895.16
2022-12-01T05:58:36.819Z,100895.16
2022-12-01T06:01:03.400Z,100898.66
2022-12-01T06:03:29.751Z,100896.94
2022-12-01T06:05:56.359Z,100903.97
2022-12-01T06:08:23.004Z,100896.13
2022-12-01T06:10:49.425Z,100896.13
2022-12-01T06:13:15.940Z,100897.00
2022-12-01T06:15:42.508Z,100900.50
2022-12-01T06:18:09.149Z,100904.03
2022-12-01T06:20:35.549Z,100904.88
2022-12-01T06:23:01.873Z,100906.63
2022-12-01T06:25:28.242Z,100898.75
2022-12-01T06:27:58.483Z,100900.50
2022-12-01T06:30:25.802Z,100898.72
2022-12-01T06:32:52.199Z,100903.97
2022-12-01T06:35:18.645Z,100909.13
2022-12-01T06:37:45.010Z,100904.81
2022-12-01T06:40:11.941Z,100908.34
2022-12-01T06:42:38.644Z,100913.56
2022-12-01T06:45:05.501Z,100909.19
2022-12-01T06:47:31.917Z,100914.44
2022-12-01T06:49:58.260Z,100914.44
2022-12-01T06:52:24.633Z,100918.81
2022-12-01T06:54:51.063Z,100927.56
2022-12-01T06:57:17.827Z,100919.75
2022-12-01T06:59:44.374Z,100921.50
2022-12-01T07:02:11.773Z,100924.13
2022-12-01T07:04:38.240Z,100929.38
2022-12-01T07:07:05.885Z,100925.03
2022-12-01T07:09:32.260Z,100917.16
2022-12-01T07:11:58.592Z,100926.75
2022-12-01T07:14:26.670Z,100925.91
2022-12-01T07:16:53.459Z,100927.66
2022-12-01T07:19:19.968Z,100927.63
2022-12-01T07:21:46.281Z,100922.41
2022-12-01T07:24:12.678Z,100922.41
2022-12-01T07:26:40.200Z,100927.69
2022-12-01T07:29:07.033Z,100925.94
2022-12-01T07:31:33.411Z,100929.47
2022-12-01T07:33:59.866Z,100931.25
2022-12-01T07:36:26.252Z,100931.28
2022-12-01T07:38:52.595Z,100933.88
2022-12-01T07:41:19.410Z,100934.78
2022-12-01T07:43:46.412Z,100931.25
2022-12-01T07:46:21.754Z,100938.22
2022-12-01T07:48:49.359Z,100941.72
2022-12-01T07:51:16.846Z,100941.75
2022-12-01T07:53:47.482Z,100936.53
2022-12-01T07:56:14.181Z,100938.31
2022-12-01T07:58:40.706Z,100942.66
2022-12-01T08:01:19.342Z,100947.97
2022-12-01T08:03:48.153Z,100946.16
2022-12-01T08:06:14.510Z,100948.78
2022-12-01T08:08:41.586Z,100951.28
2022-12-01T08:11:12.163Z,100951.28
2022-12-01T08:13:39.516Z,100957.34
2022-12-01T08:16:07.956Z,100960.78
2022-12-01T08:18:39.359Z,100953.78
2022-12-01T08:21:07.424Z,100956.38
2022-12-01T08:23:34.270Z,100957.22
2022-12-01T08:26:05.450Z,100959.88
2022-12-01T08:28:32.215Z,100954.59
2022-12-01T08:30:58.571Z,100959.00
2022-12-01T08:33:24.979Z,100962.44
2022-12-01T08:35:51.696Z,100963.31
2022-12-01T08:38:18.352Z,100960.69
2022-12-01T08:40:44.712Z,100959.84
2022-12-01T08:43:23.082Z,100964.16
2022-12-01T08:46:00.382Z,100964.16
2022-12-01T08:48:29.832Z,100964.13
2022-12-01T08:51:03.500Z,100962.44
2022-12-01T08:53:30.773Z,100965.91
2022-12-01T08:56:02.293Z,100966.78
2022-12-01T08:58:29.260Z,100967.63
2022-12-01T09:01:03.733Z,100963.31
2022-12-01T09:03:31.020Z,100972.84
2022-12-01T09:06:05.979Z,100974.63
2022-12-01T09:08:33.977Z,100968.44
2022-12-01T09:11:02.077Z,100977.16
2022-12-01T09:13:29.565Z,100975.34
2022-12-01T09:15:58.619Z,100977.13
2022-12-01T09:18:25.586Z,100971.81
2022-12-01T09:20:52.685Z,100984.84
2022-12-01T09:23:19.321Z,100983.13
2022-12-01T09:25:45.784Z,100983.97
2022-12-01T09:28:12.147Z,100979.59
2022-12-01T09:30:38.552Z,100983.06
2022-12-01T09:33:05.060Z,100988.28
2022-12-01T09:35:32.224Z,100985.63
2022-12-01T09:37:58.889Z,100982.94
2022-12-01T09:40:31.521Z,100991.72
2022-12-01T09:43:02.711Z,100982.94
2022-12-01T09:45:33.519Z,100988.13
2022-12-01T09:48:02.684Z,100987.22
2022-12-01T09:50:30.794Z,100990.72
2022-12-01T09:53:02.197Z,100993.34
2022-12-01T09:55:31.400Z,100993.31
2022-12-01T09:57:59.964Z,100993.28
2022-12-01T10:00:30.414Z,100988.00
2022-12-01T10:03:09.695Z,100985.38
2022-12-01T10:09:18.083Z,100981.78
2022-12-01T10:11:46.826Z,100978.22
2022-12-01T10:14:20.033Z,100971.31
2022-12-01T10:17:03.813Z,100975.72
2022-12-01T10:19:38.711Z,100975.69
2022-12-01T10:22:23.830Z,100972.25
2022-12-01T10:25:10.407Z,100968.78
2022-12-01T10:28:05.908Z,100965.41
2022-12-01T10:30:39.172Z,100964.50
2022-12-01T10:33:19.995Z,100968.06
2022-12-01T10:35:46.547Z,100963.59
2022-12-01T10:38:22.556Z,100966.19
2022-12-01T10:40:50.790Z,100960.09
2022-12-01T10:43:17.226Z,100962.72
2022-12-01T10:45:44.649Z,100961.81
2022-12-01T10:48:22.172Z,100953.97
2022-12-01T10:50:53.636Z,100959.16
2022-12-01T10:53:26.772Z,100965.25
2022-12-01T10:56:04.566Z,100965.25
2022-12-01T10:58:34.123Z,100957.31
2022-12-01T11:01:05.898Z,100963.47
2022-12-01T11:03:35.730Z,100959.94
2022-12-01T11:06:04.606Z,100959.94
2022-12-01T11:08:40.706Z,100962.63
2022-12-01T11:11:22.727Z,100960.09
2022-12-01T11:13:49.184Z,100958.22
2022-12-01T11:16:36.270Z,100959.22
2022-12-01T11:19:34.383Z,100960.94
2022-12-01T11:22:25.754Z,100962.63
2022-12-01T11:24:55.235Z,100959.03
2022-12-01T11:27:27.680Z,100959.91
2022-12-01T11:30:02.734Z,100951.16
2022-12-01T11:32:32.386Z,100953.75
2022-12-01T11:35:00.496Z,100951.16
2022-12-01T11:37:37.908Z,100956.44
2022-12-01T11:40:20.510Z,100952.16
2022-12-01T11:42:52.489Z,100949.47
2022-12-01T11:45:18.992Z,100954.69
2022-12-01T11:48:03.402Z,100956.56
2022-12-01T11:50:32.541Z,100955.56
2022-12-01T11:52:59.033Z,100947.72
2022-12-01T11:55:28.003Z,100941.56
2022-12-01T11:58:01.643Z,100945.09
2022-12-01T12:00:40.985Z,100944.97
2022-12-01T12:03:40.868Z,100948.56
2022-12-01T12:06:39.818Z,100949.38
2022-12-01T12:09:35.162Z,100945.94
2022-12-01T12:12:24.225Z,100937.22
2022-12-01T12:15:07.673Z,100944.19
2022-12-01T12:17:43.268Z,100940.69
2022-12-01T12:20:31.823Z,100936.34
2022-12-01T12:23:19.467Z,100926.69
2022-12-01T12:26:10.761Z,100932.03
2022-12-01T12:28:56.885Z,100932.97
2022-12-01T12:31:23.247Z,100934.63
2022-12-01T12:34:22.722Z,100926.03
2022-12-01T12:36:58.834Z,100921.59
2022-12-01T12:39:52.949Z,100918.19
2022-12-01T12:42:36.012Z,100908.53
2022-12-01T12:45:16.898Z,100910.31
2022-12-01T12:48:11.194Z,100910.34
2022-12-01T12:50:40.707Z,100906.78
2022-12-01T12:53:21.238Z,100911.19
2022-12-01T12:55:56.651Z,100914.66
2022-12-01T12:58:35.612Z,100910.28
2022-12-01T13:01:22.201Z,100905.84
2022-12-01T13:04:18.418Z,100907.59
2022-12-01T13:06:55.875Z,100902.34
2022-12-01T13:09:53.728Z,100903.25
2022-12-01T13:12:31.662Z,100898.84
2022-12-01T13:15:13.428Z,100899.72
2022-12-01T13:17:43.634Z,100898.84
2022-12-01T13:20:20.569Z,100892.78
2022-12-01T13:22:47.948Z,100900.56
2022-12-01T13:25:17.518Z,100888.34
2022-12-01T13:27:45.558Z,100895.31
2022-12-01T13:30:22.455Z,100894.56
2022-12-01T13:32:49.626Z,100893.59
2022-12-01T13:35:18.993Z,100890.97
2022-12-01T13:37:45.299Z,100884.81
2022-12-01T13:40:31.264Z,100886.69
2022-12-01T13:43:08.627Z,100887.41
2022-12-01T13:45:38.170Z,100890.84
2022-12-01T13:48:06.411Z,100890.84
2022-12-01T13:50:43.520Z,100886.53
2022-12-01T13:53:14.635Z,100890.00
2022-12-01T13:55:59.770Z,100884.88
2022-12-01T13:58:32.556Z,100890.06
2022-12-01T14:01:21.098Z,100888.41
2022-12-01T14:04:00.975Z,100891.03
2022-12-01T14:06:30.857Z,100889.19
2022-12-01T14:09:26.319Z,100899.88
2022-12-01T14:12:03.187Z,100902.44
2022-12-01T14:14:39.087Z,100905.09
2022-12-01T14:17:05.919Z,100901.53
2022-12-01T14:19:52.713Z,100903.41
2022-12-01T14:22:43.981Z,100906.91
2022-12-01T14:25:19.518Z,100907.75
2022-12-01T14:27:47.894Z,100911.19
2022-12-01T14:30:39.126Z,100908.72
2022-12-01T14:33:39.607Z,100909.56
2022-12-01T14:36:34.150Z,100918.31
2022-12-01T14:39:03.653Z,100918.28
2022-12-01T14:41:51.994Z,100917.59
2022-12-01T14:44:31.431Z,100912.38
2022-12-01T14:47:17.804Z,100918.56
2022-12-01T14:50:05.976Z,100929.09
2022-12-01T14:52:37.134Z,100926.59
2022-12-01T14:55:12.322Z,100926.66
2022-12-01T14:57:43.982Z,100925.84
2022-12-01T15:00:24.602Z,100914.59
2022-12-01T15:02:56.726Z,100914.66
2022-12-01T15:05:27.194Z,100924.28
2022-12-01T15:08:02.439Z,100914.78
2022-12-01T15:10:51.175Z,100911.41
2022-12-01T15:13:24.636Z,100903.56
2022-12-01T15:15:53.719Z,100909.69
2022-12-01T15:18:32.370Z,100906.28
2022-12-01T15:21:05.209Z,100907.19
2022-12-01T15:23:31.637Z,100896.72
2022-12-01T15:25:58.434Z,100897.63
2022-12-01T15:28:35.897Z,100903.88
2022-12-01T15:31:09.734Z,100896.00
2022-12-01T15:33:38.933Z,100887.28
2022-12-01T15:36:07.502Z,100886.50
2022-12-01T15:38:37.763Z,100892.66
2022-12-01T15:41:28.540Z,100895.34
2022-12-01T15:44:05.379Z,100896.28
2022-12-01T15:46:34.407Z,100893.69
2022-12-01T15:49:19.743Z,100898.22
2022-12-01T15:51:48.298Z,100900.00
2022-12-01T15:54:21.308Z,100906.13
2022-12-01T15:56:51.428Z,100900.94
2022-12-01T15:59:27.415Z,100902.75
2022-12-01T16:01:54.097Z,100913.28
2022-12-01T16:04:24.018Z,100914.25
2022-12-01T16:07:04.751Z,100908.28
2022-12-01T16:09:31.060Z,100920.47
2022-12-01T16:12:23.060Z,100918.06
2022-12-01T16:15:03.258Z,100914.53
2022-12-01T16:17:51.477Z,100917.28
2022-12-01T16:20:35.417Z,100916.44
2022-12-01T16:23:09.029Z,100918.22
2022-12-01T16:25:38.017Z,100924.34
2022-12-01T16:28:06.365Z,100916.56
2022-12-01T16:30:38.558Z,100919.22
2022-12-01T16:33:38.026Z,100927.13
2022-12-01T16:36:04.585Z,100923.63
2022-12-01T16:38:31.169Z,100923.66
2022-12-01T16:41:02.316Z,100922.84
2022-12-01T16:43:29.241Z,100920.19
2022-12-01T16:46:03.694Z,100917.63
2022-12-01T16:48:31.128Z,100919.41
2022-12-01T16:51:02.460Z,100919.53
2022-12-01T16:53:28.782Z,100919.50
2022-12-01T16:56:00.754Z,100910.84
2022-12-01T16:58:27.737Z,100925.66
2022-12-01T17:00:54.608Z,100922.19
2022-12-01T17:03:24.163Z,100922.19
2022-12-01T17:05:51.627Z,100923.06
2022-12-01T17:08:18.136Z,100924.84
2022-12-01T17:10:46.795Z,100923.97
2022-12-01T17:13:13.726Z,100921.34
2022-12-01T17:15:41.927Z,100922.28
2022-12-01T17:18:09.147Z,100928.41
2022-12-01T17:20:35.516Z,100927.53
2022-12-01T17:23:01.988Z,100925.81
2022-12-01T17:25:28.468Z,100926.72
2022-12-01T17:27:54.884Z,100929.41
2022-12-01T17:30:21.212Z,100934.66
2022-12-01T17:32:47.610Z,100937.28
2022-12-01T17:35:14.110Z,100933.84
2022-12-01T17:37:40.547Z,100939.06
2022-12-01T17:40:10.318Z,100947.78
2022-12-01T17:42:36.937Z,100947.75
2022-12-01T17:45:13.637Z,100946.94
2022-12-01T17:47:40.157Z,100947.72
2022-12-01T17:50:07.326Z,100951.22
2022-12-01T17:52:33.850Z,100945.13
2022-12-01T17:55:00.461Z,100952.09
2022-12-01T17:57:26.928Z,100950.41
2022-12-01T17:59:53.439Z,100949.56
2022-12-01T18:02:19.937Z,100954.03
2022-12-01T18:04:46.521Z,100946.19
2022-12-01T18:07:13.490Z,100955.81
2022-12-01T18:09:39.981Z,100956.72
2022-12-01T18:12:06.547Z,100956.72
2022-12-01T18:14:34.573Z,100958.50
2022-12-01T18:17:01.070Z,100956.75
2022-12-01T18:19:27.587Z,100955.03
2022-12-01T18:21:54.044Z,100956.84
2022-12-01T18:24:20.523Z,100962.06
2022-12-01T18:26:47.071Z,100961.19
2022-12-01T18:29:18.402Z,100963.84
2022-12-01T18:31:45.863Z,100962.09
2022-12-01T18:34:12.448Z,100966.44
2022-12-01T18:36:40.807Z,100962.94
2022-12-01T18:39:09.230Z,100961.19
2022-12-01T18:41:36.595Z,100953.34
2022-12-01T18:44:03.660Z,100960.31
2022-12-01T18:46:30.225Z,100956.03
2022-12-01T18:49:04.671Z,100956.91
2022-12-01T18:51:33.579Z,100960.44
2022-12-01T18:54:01.852Z,100960.44
2022-12-01T18:56:29.533Z,100956.13
2022-12-01T18:59:01.712Z,100956.16
2022-12-01T19:01:32.212Z,100950.03
2022-12-01T19:04:00.041Z,100952.66
2022-12-01T19:06:28.079Z,100949.19
2022-12-01T19:08:55.244Z,100949.19
2022-12-01T19:11:22.197Z,100950.06
2022-12-01T19:13:48.727Z,100945.72
2022-12-01T19:16:17.653Z,100952.69
2022-12-01T19:18:45.085Z,100944.84
2022-12-01T19:21:14.373Z,100954.44
2022-12-01T19:23:41.229Z,100946.63
2022-12-01T19:26:13.105Z,100939.59
2022-12-01T19:28:42.122Z,100948.31
2022-12-01T19:31:11.156Z,100943.09
2022-12-01T19:33:38.170Z,100938.78
2022-12-01T19:36:10.790Z,100941.38
2022-12-01T19:38:37.545Z,100942.19
2022-12-01T19:41:05.257Z,100939.53
2022-12-01T19:43:33.978Z,100939.50
2022-12-01T19:46:06.742Z,100938.66
2022-12-01T19:48:33.449Z,100936.91
2022-12-01T19:51:00.153Z,100936.03
2022-12-01T19:53:31.866Z,100935.22
2022-12-01T19:56:02.016Z,100938.69
2022-12-01T19:58:28.599Z,100934.34
2022-12-01T20:00:55.202Z,100932.59
2022-12-01T20:03:21.738Z,100928.22
2022-12-01T20:05:48.208Z,100925.63
2022-12-01T20:08:14.596Z,100928.22
2022-12-01T20:11:01.387Z,100929.16
2022-12-01T20:13:28.432Z,100932.66
2022-12-01T20:15:54.905Z,100940.50
2022-12-01T20:18:21.387Z,100940.50
2022-12-01T20:20:48.124Z,100936.16
2022-12-01T20:23:14.597Z,100944.00
2022-12-01T20:25:41.101Z,100944.84
2022-12-01T20:28:07.574Z,100942.28
2022-12-01T20:30:33.985Z,100942.28
2022-12-01T20:33:00.459Z,100944.00
2022-12-01T20:35:27.016Z,100948.38
2022-12-01T20:37:53.601Z,100950.13
2022-12-01T20:40:20.189Z,100948.44
2022-12-01T20:42:46.641Z,100946.69
2022-12-01T20:45:13.159Z,100943.25
2022-12-01T20:47:40.339Z,100948.53
2022-12-01T20:50:07.170Z,100945.94
2022-12-01T20:52:33.640Z,100934.63
2022-12-01T20:55:00.200Z,100938.13
2022-12-01T20:57:27.910Z,100945.09
2022-12-01T20:59:54.333Z,100931.13
2022-12-01T21:02:20.854Z,100935.44
2022-12-01T21:04:47.514Z,100934.53
2022-12-01T21:07:14.062Z,100934.50
2022-12-01T21:09:40.588Z,100935.38
2022-12-01T21:12:33.473Z,100934.50
2022-12-01T21:15:08.829Z,100930.06
2022-12-01T21:17:45.530Z,100923.13
2022-12-01T21:20:31.673Z,100913.56
2022-12-01T21:23:02.381Z,100914.38
2022-12-01T21:25:28.866Z,100907.41
2022-12-01T21:28:01.035Z,100910.91
2022-12-01T21:30:29.743Z,100912.63
2022-12-01T21:33:15.953Z,100912.63
2022-12-01T21:35:42.656Z,100908.22
2022-12-01T21:38:16.512Z,100907.41
2022-12-01T21:40:46.657Z,100913.44
2022-12-01T21:43:24.386Z,100910.03
2022-12-01T21:46:06.759Z,100915.22
2022-12-01T21:48:36.473Z,100901.22
2022-12-01T21:51:12.756Z,100899.47
2022-12-01T21:53:39.657Z,100891.63
2022-12-01T21:56:19.573Z,100896.94
2022-12-01T21:58:46.345Z,100898.63
2022-12-01T22:01:30.748Z,100899.56
2022-12-01T22:04:02.340Z,100901.28
2022-12-01T22:06:37.648Z,100901.28
2022-12-01T22:09:24.562Z,100907.41
2022-12-01T22:12:12.414Z,100899.53
2022-12-01T22:14:39.549Z,100898.63
2022-12-01T22:17:05.973Z,100895.16
2022-12-01T22:19:38.287Z,100889.09
2022-12-01T22:22:11.047Z,100879.50
2022-12-01T22:24:43.456Z,100879.50
2022-12-01T22:27:27.219Z,100883.00
2022-12-01T22:30:10.673Z,100887.31
2022-12-01T22:32:49.298Z,100880.38
2022-12-01T22:35:15.745Z,100869.03
2022-12-01T22:37:48.051Z,100875.16
2022-12-01T22:40:33.579Z,100876.06
2022-12-01T22:43:15.594Z,100873.44
2022-12-01T22:45:49.249Z,100873.44
2022-12-01T22:48:25.724Z,100867.41
2022-12-01T22:50:52.280Z,100874.31
2022-12-01T22:53:23.587Z,100877.78
2022-12-01T22:55:55.020Z,100877.84
2022-12-01T22:58:26.168Z,100877.00
2022-12-01T23:00:54.400Z,100871.78
2022-12-01T23:03:20.978Z,100868.28
2022-12-01T23:05:53.388Z,100872.66
2022-12-01T23:08:22.338Z,100868.28
2022-12-01T23:10:49.317Z,100863.94
2022-12-01T23:13:20.585Z,100865.75
2022-12-01T23:15:50.603Z,100862.22
2022-12-01T23:18:29.496Z,100866.59
2022-12-01T23:21:04.964Z,100862.31
2022-12-01T23:23:33.753Z,100855.34
2022-12-01T23:26:06.109Z,100851.94
2022-12-01T23:28:35.598Z,100851.06
2022-12-01T23:31:02.167Z,100851.06
2022-12-01T23:33:31.661Z,100851.97
2022-12-01T23:36:20.405Z,100854.59
2022-12-01T23:38:50.179Z,100847.59
2022-12-01T23:41:33.586Z,100850.31
2022-12-01T23:44:21.327Z,100840.78
2022-12-01T23:46:50.829Z,100846.84
2022-12-01T23:49:22.307Z,100841.75
2022-12-01T23:51:52.848Z,100844.38
2022-12-01T23:54:28.960Z,100841.78
2022-12-01T23:57:01.372Z,100837.47
2022-12-01T23:59:29.835Z,100835.75
